Latest Weather Observations for Perisher Valley

IDN60901

Issued at 5:21 pm EST Tuesday 20 April 2021 (issued every 10 minutes, with the page automatically refreshed every 10 minutes)

About weather observations | Map of Canberra area stations | Latest observations for Canberra area | Other Formats
Station Details ID: 071075 Name: PERISHER VALLEY AWS Lat: -36.41 Lon: 148.41 Height: 1738.0 m
Data from the previous 72 hours. | See also: Recent months at Perisher Valley
Date/Time
EST
Temp
°C
App
Temp
°C
Dew
Point
°C
Rel
Hum
%
Delta-T
°C
Wind Press
QNH
hPa
Press
MSL
hPa
Rain since
9am
mm
Dir  Spd
km/h
Gust
km/h
Spd
kts
Gust
kts
20/05:00pm 4.4 -2.8 0.6 76 1.6 W 28 50 15 27 - - 0.0
20/04:30pm 4.4 -3.5 1.1 79 1.4 W 32 57 17 31 - - 0.0
20/04:00pm 4.5 -4.7 1.2 79 1.4 W 39 69 21 37 - - 0.0
20/03:30pm 4.8 -4.8 0.9 76 1.7 W 41 76 22 41 - - 0.0
20/03:00pm 4.6 -4.6 1.3 79 1.5 W 39 65 21 35 - - 0.0
20/02:30pm 4.9 -2.2 1.2 77 1.6 W 28 56 15 30 - - 0.0
20/02:00pm 4.8 -3.1 1.3 78 1.5 W 32 61 17 33 - - 0.0
20/01:30pm 4.4 -3.1 1.3 80 1.4 W 30 61 16 33 - - 0.0
20/01:10pm 4.1 -3.1 0.6 78 1.5 WNW 28 63 15 34 - - 0.0
20/01:00pm 4.1 -2.3 1.1 81 1.3 WNW 24 52 13 28 - - 0.0
20/12:36pm 4.2 -3.0 0.7 78 1.5 W 28 54 15 29 - - 0.0
20/12:30pm 4.4 -2.4 0.6 76 1.6 W 26 52 14 28 - - 0.0
20/12:00pm 4.8 -3.1 1.3 78 1.5 W 32 57 17 31 - - 0.0
20/11:30am 4.1 -4.0 1.3 82 1.2 W 33 67 18 36 - - 0.0
20/11:00am 3.4 -4.4 1.6 88 0.8 W 32 52 17 28 - - 0.0
20/10:32am 4.2 -2.9 1.2 81 1.3 W 28 65 15 35 - - 0.0
20/10:30am 4.3 -2.1 1.2 80 1.4 W 24 65 13 35 - - 0.0
20/10:19am 3.6 -3.5 1.2 84 1.0 W 28 56 15 30 - - 0.0
20/10:00am 4.1 -1.3 1.3 82 1.2 WNW 19 41 10 22 - - 0.0
20/09:30am 3.3 -2.3 1.3 87 0.9 WNW 20 46 11 25 - - 0.0
20/09:00am 3.2 -0.7 1.3 87 0.8 W 11 33 6 18 - - 0.0
20/08:30am 2.9 0.2 0.5 84 1.0 S 4 15 2 8 - - 0.0
20/08:00am 2.9 -0.4 0.1 82 1.2 WSW 7 19 4 10 - - 0.0
20/07:30am 3.0 -0.2 -0.3 79 1.4 NW 6 26 3 14 - - 0.0
20/07:00am 3.3 -1.2 -0.3 77 1.5 NW 13 30 7 16 - - 0.0
20/06:30am 2.8 -3.1 -0.5 79 1.4 WNW 20 37 11 20 - - 0.0
20/06:00am 2.5 -3.3 -0.4 81 1.2 W 20 43 11 23 - - 0.0
20/05:30am 2.4 -5.0 -0.7 80 1.3 WSW 28 52 15 28 - - 0.0
20/05:04am 2.3 -5.5 -0.8 80 1.3 WSW 30 50 16 27 - - 0.0
20/05:00am 2.4 -5.8 -0.7 80 1.3 WSW 32 50 17 27 - - 0.0
20/04:31am 2.5 -5.6 -0.3 82 1.2 WSW 32 54 17 29 - - 0.0
20/04:30am 2.5 -5.6 -0.3 82 1.2 WSW 32 48 17 26 - - 0.0
20/04:00am 2.6 -5.5 -0.2 82 1.2 WSW 32 56 17 30 - - 0.0
20/03:33am 2.7 -4.7 -0.4 80 1.3 WSW 28 50 15 27 - - 0.0
20/03:30am 2.6 -4.4 -0.2 82 1.2 WSW 26 43 14 23 - - 0.0
20/03:01am 2.9 -4.3 0.5 84 1.0 WSW 28 52 15 28 - - 0.0
20/03:00am 2.9 -4.0 0.3 83 1.1 WSW 26 52 14 28 - - 0.0
20/02:30am 3.0 -4.2 0.7 85 1.0 WSW 28 50 15 27 - - 0.0
20/02:00am 2.9 -4.8 -0.2 80 1.3 WSW 30 50 16 27 - - 0.0
20/01:30am 2.8 -5.3 -0.6 78 1.4 WSW 32 56 17 30 - - 0.0
20/01:00am 2.8 -5.9 -0.5 79 1.4 WSW 35 59 19 32 - - 0.0
20/12:30am 2.7 -5.4 -0.1 82 1.2 WSW 32 52 17 28 - - 0.0
20/12:03am 2.7 -4.6 0.3 84 1.0 WSW 28 48 15 26 - - 0.0
20/12:00am 2.6 -4.3 0.2 84 1.0 WSW 26 46 14 25 - - 0.0
 
Date/Time
EST
Temp
°C
App
Temp
°C
Dew
Point
°C
Rel
Hum
%
Delta-T
°C
Wind Press
QNH
hPa
Press
MSL
hPa
Rain since
9am
mm
Dir  Spd
km/h
Gust
km/h
Spd
kts
Gust
kts
19/11:30pm 2.5 -4.0 0.1 84 1.0 W 24 41 13 22 - - 0.0
19/11:00pm 2.3 -3.5 0.0 85 1.0 W 20 39 11 21 - - 0.0
19/10:30pm 2.4 -2.7 0.5 87 0.8 W 17 30 9 16 - - 0.0
19/10:00pm 2.8 -1.9 1.0 88 0.8 W 15 26 8 14 - - 0.0
19/09:30pm 2.8 -1.1 0.9 87 0.8 W 11 26 6 14 - - 0.0
19/09:00pm 3.1 -1.1 1.5 89 0.7 W 13 22 7 12 - - 0.0
19/08:30pm 3.0 -2.4 1.5 90 0.7 W 19 28 10 15 - - 0.0
19/08:00pm 3.0 -2.6 1.5 90 0.7 WNW 20 32 11 17 - - 0.0
19/07:30pm 3.2 -3.1 1.3 87 0.8 WNW 24 39 13 21 - - 0.0
19/07:00pm 3.4 -2.7 0.1 79 1.4 W 22 43 12 23 - - 0.0
19/06:30pm 4.3 -2.7 -0.3 72 1.9 W 26 35 14 19 - - 0.0
19/06:00pm 4.5 -3.3 -0.5 70 2.1 W 30 43 16 23 - - 0.0
19/05:30pm 5.1 -1.7 -1.8 61 2.8 W 24 41 13 22 - - 0.0
19/05:00pm 4.9 -1.7 -0.1 70 2.1 W 24 39 13 21 - - 0.0
19/04:30pm 5.3 -0.3 -0.3 67 2.4 W 19 35 10 19 - - 0.0
19/04:00pm 6.7 2.6 -0.3 61 3.0 WSW 11 30 6 16 - - 0.0
19/03:30pm 8.1 4.4 -0.1 56 3.6 NNE 9 28 5 15 - - 0.0
19/03:00pm 9.5 6.1 -0.4 50 4.4 N 7 17 4 9 - - 0.0
19/02:30pm 9.2 5.6 -2.4 44 4.9 N 7 20 4 11 - - 0.0
19/02:00pm 10.3 5.1 -2.4 41 5.4 W 15 32 8 17 - - 0.0
19/01:30pm 10.6 4.7 -2.1 41 5.5 W 19 28 10 15 - - 0.0
19/01:00pm 10.7 4.7 -3.0 38 5.8 W 19 33 10 18 - - 0.0
19/12:30pm 12.4 9.0 -0.8 40 5.9 NW 7 22 4 12 - - 0.0
19/12:00pm 12.0 7.9 -3.4 34 6.5 WSW 9 24 5 13 - - 0.0
19/11:30am 11.9 6.6 -3.4 34 6.5 W 15 26 8 14 - - 0.0
19/11:00am 11.3 4.6 -4.4 33 6.5 W 22 33 12 18 - - 0.0
19/10:30am 10.9 3.7 -5.1 32 6.4 W 24 35 13 19 - - 0.0
19/10:00am 10.8 4.6 -5.2 32 6.4 WNW 19 33 10 18 - - 0.0
19/09:30am 12.4 7.7 -4.7 30 7.1 ESE 11 19 6 10 - - 0.0
19/09:00am 11.6 7.5 -2.9 36 6.2 ESE 9 17 5 9 - - 0.0
19/08:30am 10.2 7.1 -2.4 41 5.4 E 4 7 2 4 - - 0.0
19/08:00am 6.8 4.3 -1.3 56 3.4 ENE 2 6 1 3 - - 0.0
19/07:30am 3.4 1.1 -2.5 65 2.3 CALM 0 2 0 1 - - 0.0
19/07:00am 1.0 -2.0 -4.8 65 2.2 SW 2 6 1 3 - - 0.0
19/06:30am 0.0 -2.7 -5.6 66 2.0 CALM 0 4 0 2 - - 0.0
19/06:00am 1.5 -1.5 -5.6 59 2.6 NNE 2 4 1 2 - - 0.0
19/05:30am 4.4 -0.6 -4.1 54 3.3 WSW 13 22 7 12 - - 0.0
19/05:00am 4.0 -0.2 -4.0 56 3.1 SW 9 17 5 9 - - 0.0
19/04:30am 2.8 -0.8 -3.7 62 2.5 WSW 6 17 3 9 - - 0.0
19/04:00am 2.9 -0.7 -2.4 68 2.1 W 7 15 4 8 - - 0.0
19/03:30am 2.5 -0.9 -0.6 80 1.3 W 7 17 4 9 - - 0.0
19/03:00am 3.1 -0.7 -0.4 78 1.5 W 9 19 5 10 - - 0.0
19/02:30am 1.2 -1.2 -0.3 90 0.6 W 2 7 1 4 - - 0.0
19/02:00am 1.4 -1.8 0.8 96 0.3 W 7 20 4 11 - - 0.0
19/01:30am -1.0 -3.2 -1.4 97 0.1 CALM 0 0 0 0 - - 0.0
19/01:00am -1.3 -3.5 -1.7 97 0.1 CALM 0 4 0 2 - - 0.0
19/12:30am -1.6 -3.9 -2.0 97 0.1 CALM 0 2 0 1 - - 0.0
19/12:00am -1.8 -4.1 -2.2 97 0.1 CALM 0 2 0 1 - - 0.0
 
Date/Time
EST
Temp
°C
App
Temp
°C
Dew
Point
°C
Rel
Hum
%
Delta-T
°C
Wind Press
QNH
hPa
Press
MSL
hPa
Rain since
9am
mm
Dir  Spd
km/h
Gust
km/h
Spd
kts
Gust
kts
18/11:30pm -1.7 -4.4 -2.1 97 0.1 WSW 2 6 1 3 - - 0.0
18/11:00pm -1.1 -3.3 -1.2 99 0.0 CALM 0 4 0 2 - - 0.0
18/10:30pm -1.3 -3.5 -1.7 97 0.1 CALM 0 2 0 1 - - 0.0
18/10:00pm -0.7 -2.8 -1.0 98 0.1 CALM 0 2 0 1 - - 0.0
18/09:30pm -0.9 -3.1 -1.3 97 0.1 CALM 0 0 0 0 - - 0.0
18/09:00pm -1.1 -3.3 -1.8 95 0.2 CALM 0 2 0 1 - - 0.0
18/08:30pm 0.0 -2.4 -0.4 97 0.2 SW 2 4 1 2 - - 0.0
18/08:00pm -0.4 -2.9 -1.2 94 0.3 SW 2 4 1 2 - - 0.0
18/07:30pm 0.3 -1.8 -0.7 93 0.4 CALM 0 2 0 1 - - 0.0
18/07:00pm 0.8 -1.3 -0.8 89 0.6 CALM 0 2 0 1 - - 0.0
18/06:30pm 1.7 -0.3 -0.1 88 0.7 CALM 0 4 0 2 - - 0.0
18/06:00pm 2.2 -0.2 -0.5 82 1.1 SW 2 7 1 4 - - 0.0
18/05:30pm 4.4 2.4 0.2 74 1.8 CALM 0 0 0 0 - - 0.0
18/05:00pm 5.7 3.4 0.3 68 2.3 SSW 2 6 1 3 - - 0.0
18/04:30pm 8.5 5.6 1.2 60 3.3 SE 6 11 3 6 - - 0.0
18/04:00pm 9.8 6.9 1.7 57 3.8 ENE 6 9 3 5 - - 0.0
18/03:30pm 8.6 6.1 1.3 60 3.3 SE 4 9 2 5 - - 0.0
18/03:00pm 9.5 6.9 0.7 54 4.0 ESE 4 7 2 4 - - 0.0
18/02:30pm 10.9 8.3 1.2 51 4.5 S 4 11 2 6 - - 0.0
18/02:00pm 11.2 8.2 1.7 52 4.5 SSE 7 15 4 8 - - 0.0
18/01:30pm 11.8 8.0 -1.0 41 5.7 S 9 20 5 11 - - 0.0
18/01:00pm 13.3 8.7 -7.9 22 8.2 SSW 9 20 5 11 - - 0.0
18/12:30pm 12.5 8.1 -6.0 27 7.4 WSW 9 19 5 10 - - 0.0
18/12:00pm 12.6 7.5 -9.1 21 8.1 SSW 11 20 6 11 - - 0.0
18/11:30am 12.7 7.5 -11.0 18 8.5 SSW 11 20 6 11 - - 0.0
18/11:00am 12.5 9.4 -2.9 34 6.6 NW 4 11 2 6 - - 0.0
18/10:30am 11.5 7.9 -7.8 25 7.4 W 4 13 2 7 - - 0.0
18/10:00am 10.7 6.5 -8.0 26 7.0 SW 7 19 4 10 - - 0.0
18/09:30am 9.2 5.2 -5.8 34 5.8 WSW 7 15 4 8 - - 0.0
18/09:00am 8.0 3.1 -7.3 33 5.7 W 11 20 6 11 - - 0.0
18/08:30am 6.5 0.7 -8.2 34 5.2 WSW 15 24 8 13 - - 0.0
18/08:00am 3.5 0.9 -1.8 68 2.1 SW 2 6 1 3 - - 0.0
18/07:30am 1.4 -1.3 -2.5 75 1.6 N 2 9 1 5 - - 0.0
18/07:00am -1.2 -4.0 -3.4 85 0.8 SSE 2 7 1 4 - - 0.0
18/06:30am -1.7 -4.1 -3.4 88 0.5 CALM 0 4 0 2 - - 0.0
18/06:00am -1.8 -4.7 -4.1 84 0.7 NNE 2 6 1 3 - - 0.0
18/05:30am -1.2 -3.7 -4.2 80 1.0 CALM 0 4 0 2 - - 0.0
18/05:00am -0.5 -3.8 -4.7 73 1.5 SSW 4 11 2 6 - - 0.0
18/04:30am 0.2 -2.9 -2.3 83 1.0 SW 4 11 2 6 - - 0.0
18/04:00am -1.7 -4.6 -4.0 84 0.7 E 2 7 1 4 - - 0.0
18/03:30am -1.4 -3.9 -3.9 83 0.8 CALM 0 2 0 1 - - 0.0
18/03:00am -0.3 -3.2 -1.3 93 0.4 SSW 4 9 2 5 - - 0.0
18/02:30am -2.7 -5.6 -4.4 88 0.5 E 2 6 1 3 - - 0.0
18/02:00am -2.1 -4.9 -3.5 90 0.4 NE 2 4 1 2 - - 0.0
18/01:30am -2.1 -4.5 -3.5 90 0.4 CALM 0 2 0 1 - - 0.0
18/01:00am -1.8 -4.1 -2.2 97 0.1 CALM 0 6 0 3 - - 0.0
18/12:30am -3.0 -5.5 -3.7 95 0.1 CALM 0 4 0 2 - - 0.0
18/12:00am -2.4 -4.8 -2.9 96 0.1 CALM 0 4 0 2 - - 0.0
 
Date/Time
EST
Temp
°C
App
Temp
°C
Dew
Point
°C
Rel
Hum
%
Delta-T
°C
Wind Press
QNH
hPa
Press
MSL
hPa
Rain since
9am
mm
Dir  Spd
km/h
Gust
km/h
Spd
kts
Gust
kts
17/11:30pm -1.8 -4.5 -2.2 97 0.1 W 2 7 1 4 - - 0.0
17/11:00pm -1.2 -3.8 -1.9 95 0.2 SW 2 4 1 2 - - 0.0
17/10:30pm -0.3 -2.8 -1.0 95 0.3 WSW 2 4 1 2 - - 0.0
17/10:00pm 2.1 -0.3 2.1 100 0.0 N 4 9 2 5 - - 0.0
17/09:30pm 1.2 -1.4 1.2 100 0.0 NE 4 9 2 5 - - 0.0
17/09:00pm -0.2 -2.2 -0.3 99 0.0 CALM 0 2 0 1 - - 0.0
17/08:30pm -1.1 -3.3 -1.5 97 0.1 CALM 0 4 0 2 - - 0.0
17/08:00pm -1.4 -3.7 -2.1 95 0.2 CALM 0 0 0 0 - - 0.0
17/07:30pm -0.7 -2.9 -1.5 94 0.3 CALM 0 4 0 2 - - 0.0
17/07:00pm -0.1 -2.2 -0.9 94 0.3 CALM 0 2 0 1 - - 0.0
17/06:30pm 0.9 -1.1 -0.2 92 0.4 CALM 0 2 0 1 - - 0.0
17/06:00pm 1.6 -0.4 -0.2 88 0.7 CALM 0 2 0 1 - - 0.0
17/05:30pm 4.1 1.9 1.3 82 1.2 N 2 4 1 2 - - 0.0

Latest Capital City Observations: Canberra | Sydney | Melbourne | Brisbane | Adelaide | Perth | Hobart | Darwin

Other formats

Comma delimited format used in spreadsheet applications
http://www.bom.gov.au/fwo/IDN60903/IDN60903.94915.axf

JavaScript Object Notation format (JSON) in row-major order
http://www.bom.gov.au/fwo/IDN60903/IDN60903.94915.json

Data quality

Most of these data are generated automatically and are frequently updated. Quality checks on data are not normally performed. It is possible for incorrect values to appear. Refer to information at About Latest Weather Observations and please check the disclaimer before using these data.